createdAt,value
2023-04-19T00:00:10.375Z,87.26
2023-04-19T00:05:32.570Z,88.57
2023-04-19T00:10:54.416Z,87.91
2023-04-19T00:16:16.886Z,89.36
2023-04-19T00:21:38.784Z,92.17
2023-04-19T00:27:00.586Z,91.12
2023-04-19T00:32:22.464Z,92.39
2023-04-19T00:37:44.314Z,93.90
2023-04-19T00:43:06.133Z,95.65
2023-04-19T00:48:29.292Z,96.80
2023-04-19T00:53:52.474Z,96.44
2023-04-19T00:59:15.344Z,96.30
2023-04-19T01:04:37.410Z,98.21
2023-04-19T01:09:59.345Z,100.00
2023-04-19T01:15:21.188Z,100.00
2023-04-19T01:20:43.049Z,100.00
2023-04-19T01:26:05.952Z,100.00
2023-04-19T01:31:27.829Z,100.00
2023-04-19T01:36:49.875Z,100.00
2023-04-19T01:42:11.759Z,100.00
2023-04-19T01:47:33.704Z,100.00
2023-04-19T01:52:55.571Z,100.00
2023-04-19T01:58:17.384Z,100.00
2023-04-19T02:03:40.269Z,100.00
2023-04-19T02:09:02.379Z,100.00
2023-04-19T02:14:24.233Z,100.00
2023-04-19T02:19:46.032Z,100.00
2023-04-19T02:25:08.242Z,100.00
2023-04-19T02:30:30.156Z,100.00
2023-04-19T02:35:51.971Z,100.00
2023-04-19T02:41:13.830Z,100.00
2023-04-19T02:46:35.697Z,100.00
2023-04-19T02:51:57.539Z,100.00
2023-04-19T02:57:19.331Z,100.00
2023-04-19T03:02:42.453Z,100.00
2023-04-19T03:08:04.622Z,100.00
2023-04-19T03:13:26.435Z,100.00
2023-04-19T03:18:49.480Z,100.00
2023-04-19T03:24:11.542Z,100.00
2023-04-19T03:29:33.372Z,100.00
2023-04-19T03:34:55.366Z,100.00
2023-04-19T03:40:17.218Z,100.00
2023-04-19T03:45:39.252Z,100.00
2023-04-19T03:51:01.087Z,100.00
2023-04-19T03:56:22.891Z,100.00
2023-04-19T04:01:44.710Z,100.00
2023-04-19T04:07:06.568Z,100.00
2023-04-19T04:12:28.383Z,100.00
2023-04-19T04:17:50.535Z,100.00
2023-04-19T04:23:12.402Z,100.00
2023-04-19T04:28:34.224Z,100.00
2023-04-19T04:33:56.016Z,100.00
2023-04-19T04:39:17.818Z,100.00
2023-04-19T04:44:40.235Z,100.00
2023-04-19T04:50:02.767Z,100.00
2023-04-19T04:55:24.586Z,100.00
2023-04-19T05:00:46.603Z,100.00
2023-04-19T05:06:08.404Z,100.00
2023-04-19T05:11:30.239Z,100.00
2023-04-19T05:16:52.085Z,100.00
2023-04-19T05:22:14.004Z,100.00
2023-04-19T05:27:35.821Z,100.00
2023-04-19T05:32:57.657Z,100.00
2023-04-19T05:38:19.869Z,100.00
2023-04-19T05:43:41.701Z,100.00
2023-04-19T05:49:03.560Z,100.00
2023-04-19T05:54:25.435Z,100.00
2023-04-19T05:59:47.359Z,100.00
2023-04-19T06:05:11.071Z,100.00
2023-04-19T06:10:44.377Z,100.00
2023-04-19T06:16:13.551Z,100.00
2023-04-19T06:21:35.402Z,100.00
2023-04-19T06:26:57.390Z,100.00
2023-04-19T06:32:19.286Z,100.00
2023-04-19T06:37:41.229Z,100.00
2023-04-19T06:43:03.176Z,100.00
2023-04-19T06:48:27.766Z,100.00
2023-04-19T06:53:50.325Z,100.00
2023-04-19T06:59:17.277Z,100.00
2023-04-19T07:04:39.331Z,100.00
2023-04-19T07:10:01.268Z,100.00
2023-04-19T07:15:23.221Z,100.00
2023-04-19T07:20:45.016Z,100.00
2023-04-19T07:26:07.559Z,100.00
2023-04-19T07:31:29.371Z,100.00
2023-04-19T07:36:51.336Z,100.00
2023-04-19T07:42:13.443Z,100.00
2023-04-19T07:47:35.281Z,100.00
2023-04-19T07:52:57.102Z,100.00
2023-04-19T07:58:18.967Z,100.00
2023-04-19T08:03:40.919Z,100.00
2023-04-19T08:09:02.896Z,99.26
2023-04-19T08:14:37.765Z,99.72
2023-04-19T08:20:06.486Z,99.07
2023-04-19T08:25:28.293Z,96.45
2023-04-19T08:30:50.144Z,96.73
2023-04-19T08:36:12.667Z,95.79
2023-04-19T08:41:35.812Z,91.91
2023-04-19T08:46:59.322Z,91.79
2023-04-19T08:52:22.541Z,92.63
2023-04-19T08:57:44.512Z,89.87
2023-04-19T09:03:08.064Z,92.08
2023-04-19T09:08:31.386Z,90.37
2023-04-19T09:14:08.294Z,92.70
2023-04-19T09:19:45.724Z,91.22
2023-04-19T09:30:37.858Z,91.10
2023-04-19T09:36:06.702Z,91.97
2023-04-19T09:41:28.624Z,90.57
2023-04-19T09:46:52.991Z,91.58
2023-04-19T09:52:15.305Z,89.97
2023-04-19T09:57:37.135Z,91.02
2023-04-19T10:02:59.142Z,91.01
2023-04-19T10:08:21.097Z,91.41
2023-04-19T10:13:45.146Z,92.49
2023-04-19T10:19:10.798Z,91.91
2023-04-19T10:24:33.778Z,93.47
2023-04-19T10:29:55.582Z,92.25
2023-04-19T10:35:26.190Z,90.44
2023-04-19T10:41:01.208Z,92.00
2023-04-19T10:46:23.211Z,89.55
2023-04-19T10:51:51.069Z,88.60
2023-04-19T10:57:12.940Z,90.93
2023-04-19T11:02:34.945Z,88.77
2023-04-19T11:07:56.805Z,86.78
2023-04-19T11:13:18.739Z,83.48
2023-04-19T11:18:40.548Z,84.11
2023-04-19T11:24:12.204Z,78.56
2023-04-19T11:29:34.031Z,78.41
2023-04-19T11:34:56.554Z,78.20
2023-04-19T11:40:20.456Z,74.44
2023-04-19T11:45:42.813Z,72.27
2023-04-19T11:51:05.317Z,72.59
2023-04-19T11:56:27.197Z,72.61
2023-04-19T12:01:49.027Z,73.64
2023-04-19T12:07:12.164Z,71.89
2023-04-19T12:12:34.070Z,70.99
2023-04-19T12:18:02.777Z,71.19
2023-04-19T12:23:24.655Z,73.27
2023-04-19T12:28:46.445Z,73.09
2023-04-19T12:34:08.269Z,72.20
2023-04-19T12:39:30.656Z,71.03
2023-04-19T12:44:52.470Z,72.41
2023-04-19T12:50:15.580Z,69.78
2023-04-19T12:55:37.424Z,73.53
2023-04-19T13:00:59.271Z,72.23
2023-04-19T13:06:21.227Z,71.77
2023-04-19T13:11:43.079Z,69.29
2023-04-19T13:17:04.940Z,68.67
2023-04-19T13:22:26.849Z,63.88
2023-04-19T13:27:48.660Z,65.49
2023-04-19T13:33:10.783Z,66.44
2023-04-19T13:38:32.736Z,66.45
2023-04-19T13:43:54.547Z,65.48
2023-04-19T13:49:16.350Z,64.96
2023-04-19T13:54:38.199Z,63.03
2023-04-19T14:00:00.015Z,62.88
2023-04-19T14:05:21.943Z,62.45
2023-04-19T14:10:43.876Z,63.41
2023-04-19T14:16:06.033Z,62.32
2023-04-19T14:21:27.943Z,61.70
2023-04-19T14:27:03.158Z,61.57
2023-04-19T14:32:31.405Z,63.93
2023-04-19T14:37:53.329Z,63.54
2023-04-19T14:43:15.496Z,62.12
2023-04-19T14:48:37.323Z,63.20
2023-04-19T14:53:59.409Z,61.63
2023-04-19T14:59:21.363Z,62.42
2023-04-19T15:04:43.418Z,63.47
2023-04-19T15:10:06.088Z,65.75
2023-04-19T15:15:28.058Z,71.50
2023-04-19T15:20:50.257Z,75.39
2023-04-19T15:26:12.107Z,76.62
2023-04-19T15:31:34.021Z,78.56
2023-04-19T15:36:55.873Z,83.75
2023-04-19T15:42:17.731Z,85.10
2023-04-19T15:47:39.632Z,85.53
2023-04-19T15:53:01.843Z,85.00
2023-04-19T15:58:23.865Z,85.79
2023-04-19T16:03:45.938Z,87.17
2023-04-19T16:09:07.897Z,88.00
2023-04-19T16:14:29.741Z,87.53
2023-04-19T16:19:51.629Z,89.40
2023-04-19T16:25:14.501Z,89.43
2023-04-19T16:30:36.321Z,91.34
2023-04-19T16:35:58.171Z,92.82
2023-04-19T16:41:20.016Z,95.03
2023-04-19T16:46:42.784Z,97.95
2023-04-19T16:52:04.689Z,99.92
2023-04-19T16:57:26.684Z,99.06
2023-04-19T17:02:48.583Z,100.00
2023-04-19T17:08:10.602Z,100.00
2023-04-19T17:13:32.587Z,99.33
2023-04-19T17:18:55.630Z,100.00
2023-04-19T17:24:17.464Z,100.00
2023-04-19T17:29:39.346Z,100.00
2023-04-19T17:35:01.220Z,100.00
2023-04-19T17:40:23.050Z,100.00
2023-04-19T17:45:44.875Z,100.00
2023-04-19T17:51:07.511Z,100.00
2023-04-19T17:56:29.393Z,100.00
2023-04-19T18:01:51.215Z,100.00
2023-04-19T18:07:13.406Z,100.00
2023-04-19T18:12:35.462Z,100.00
2023-04-19T18:17:57.342Z,100.00
2023-04-19T18:23:19.220Z,100.00
2023-04-19T18:28:41.031Z,100.00
2023-04-19T18:34:02.842Z,100.00
2023-04-19T18:39:24.704Z,100.00
2023-04-19T18:44:53.607Z,100.00
2023-04-19T18:50:19.150Z,99.41
2023-04-19T18:55:41.312Z,98.94
2023-04-19T19:01:03.304Z,94.29
2023-04-19T19:06:25.310Z,91.77
2023-04-19T19:11:55.959Z,92.08
2023-04-19T19:17:19.008Z,90.06
2023-04-19T19:22:40.867Z,87.68
2023-04-19T19:28:08.281Z,85.23
2023-04-19T19:33:32.780Z,85.46
2023-04-19T19:38:54.766Z,84.57
2023-04-19T19:44:16.655Z,82.50
2023-04-19T19:55:03.582Z,83.06
2023-04-19T20:00:42.887Z,82.25
2023-04-19T20:11:31.869Z,81.76
2023-04-19T20:16:54.358Z,82.32
2023-04-19T20:22:16.264Z,82.89
2023-04-19T20:27:38.135Z,82.84
2023-04-19T20:33:00.013Z,82.38
2023-04-19T20:38:21.877Z,82.54
2023-04-19T20:43:43.754Z,83.81
2023-04-19T20:49:05.635Z,83.84
2023-04-19T20:54:27.499Z,83.87
2023-04-19T20:59:50.231Z,84.01
2023-04-19T21:05:12.047Z,83.41
2023-04-19T21:10:33.967Z,83.63
2023-04-19T21:15:55.904Z,84.04
2023-04-19T21:21:17.744Z,84.02
2023-04-19T21:26:39.626Z,84.53
2023-04-19T21:32:01.610Z,84.17
2023-04-19T21:37:23.611Z,85.27
2023-04-19T21:42:45.434Z,85.97
2023-04-19T21:48:07.256Z,85.00
2023-04-19T21:53:29.168Z,85.45
2023-04-19T21:58:51.017Z,85.41
2023-04-19T22:04:12.858Z,85.70
2023-04-19T22:09:34.726Z,85.37
2023-04-19T22:14:56.567Z,86.70
2023-04-19T22:20:18.570Z,88.36
2023-04-19T22:25:40.503Z,88.47
2023-04-19T22:31:02.373Z,88.85
2023-04-19T22:36:24.242Z,88.13
2023-04-19T22:41:46.105Z,89.63
2023-04-19T22:47:07.937Z,88.98
2023-04-19T22:52:29.859Z,88.91
2023-04-19T22:57:51.719Z,89.39
2023-04-19T23:03:13.721Z,89.86
2023-04-19T23:08:35.601Z,90.36
2023-04-19T23:13:57.441Z,89.67
2023-04-19T23:19:19.433Z,90.48
2023-04-19T23:24:41.451Z,91.11
2023-04-19T23:30:04.964Z,91.00
2023-04-19T23:35:26.978Z,91.34
2023-04-19T23:40:48.883Z,93.06
2023-04-19T23:46:10.712Z,93.62
2023-04-19T23:51:32.560Z,92.29
2023-04-19T23:56:55.195Z,92.74
